createdAt,value
2022-10-29T00:01:04.585Z,99.90
2022-10-29T00:03:32.243Z,99.90
2022-10-29T00:06:05.606Z,99.90
2022-10-29T00:08:35.287Z,99.90
2022-10-29T00:11:12.498Z,99.90
2022-10-29T00:13:40.415Z,99.90
2022-10-29T00:16:17.687Z,99.90
2022-10-29T00:18:45.496Z,99.90
2022-10-29T00:21:21.105Z,99.90
2022-10-29T00:23:49.432Z,99.90
2022-10-29T00:26:18.895Z,99.90
2022-10-29T00:28:49.733Z,99.90
2022-10-29T00:31:24.842Z,99.90
2022-10-29T00:33:54.389Z,99.90
2022-10-29T00:36:26.896Z,99.90
2022-10-29T00:38:55.055Z,99.90
2022-10-29T00:41:26.688Z,99.90
2022-10-29T00:44:20.555Z,99.90
2022-10-29T00:47:18.541Z,99.90
2022-10-29T00:49:56.670Z,99.90
2022-10-29T00:52:28.870Z,99.90
2022-10-29T00:54:58.062Z,99.90
2022-10-29T00:57:40.784Z,99.90
2022-10-29T01:00:09.236Z,99.90
2022-10-29T01:02:38.887Z,99.90
2022-10-29T01:05:08.073Z,99.90
2022-10-29T01:07:35.879Z,99.90
2022-10-29T01:10:04.037Z,99.90
2022-10-29T01:12:46.590Z,99.90
2022-10-29T01:15:31.897Z,99.90
2022-10-29T01:18:20.995Z,99.90
2022-10-29T01:21:30.145Z,99.90
2022-10-29T01:24:31.491Z,99.90
2022-10-29T01:27:26.774Z,99.90
2022-10-29T01:30:04.227Z,99.90
2022-10-29T01:32:37.844Z,99.90
2022-10-29T01:35:15.708Z,99.90
2022-10-29T01:38:02.567Z,99.90
2022-10-29T01:40:44.753Z,99.90
2022-10-29T01:43:43.919Z,99.90
2022-10-29T01:46:15.151Z,99.90
2022-10-29T01:48:52.976Z,99.90
2022-10-29T01:51:34.379Z,99.90
2022-10-29T01:54:06.164Z,99.90
2022-10-29T01:56:33.738Z,99.90
2022-10-29T01:59:05.644Z,99.90
2022-10-29T02:01:58.270Z,99.90
2022-10-29T02:04:58.785Z,99.90
2022-10-29T02:07:40.811Z,99.90
2022-10-29T02:10:29.369Z,99.90
2022-10-29T02:12:57.720Z,99.90
2022-10-29T02:15:36.040Z,99.90
2022-10-29T02:18:08.604Z,99.90
2022-10-29T02:20:42.183Z,99.90
2022-10-29T02:23:10.486Z,99.90
2022-10-29T02:25:38.162Z,99.90
2022-10-29T02:28:06.032Z,99.90
2022-10-29T02:30:34.118Z,99.90
2022-10-29T02:33:01.812Z,99.90
2022-10-29T02:35:29.548Z,99.90
2022-10-29T02:38:00.292Z,99.90
2022-10-29T02:40:27.910Z,99.90
2022-10-29T02:42:56.333Z,99.90
2022-10-29T02:45:24.213Z,99.90
2022-10-29T02:47:51.888Z,99.90
2022-10-29T02:50:19.549Z,99.90
2022-10-29T02:52:47.363Z,99.90
2022-10-29T02:55:15.044Z,99.90
2022-10-29T02:57:46.401Z,99.90
2022-10-29T03:00:14.797Z,99.90
2022-10-29T03:02:42.583Z,99.90
2022-10-29T03:05:10.770Z,99.90
2022-10-29T03:07:41.603Z,99.90
2022-10-29T03:10:10.664Z,99.90
2022-10-29T03:12:38.306Z,99.90
2022-10-29T03:15:06.610Z,99.90
2022-10-29T03:17:34.244Z,99.90
2022-10-29T03:20:01.960Z,99.90
2022-10-29T03:22:30.086Z,99.90
2022-10-29T03:24:57.825Z,99.90
2022-10-29T03:27:25.705Z,99.90
2022-10-29T03:29:53.477Z,99.90
2022-10-29T03:32:21.241Z,99.90
2022-10-29T03:34:48.877Z,99.90
2022-10-29T03:37:18.133Z,99.90
2022-10-29T03:39:45.764Z,99.90
2022-10-29T03:42:13.415Z,99.90
2022-10-29T03:44:43.085Z,99.90
2022-10-29T03:47:10.892Z,99.90
2022-10-29T03:49:38.528Z,99.90
2022-10-29T03:52:06.103Z,99.90
2022-10-29T03:54:33.767Z,99.90
2022-10-29T03:57:01.576Z,99.90
2022-10-29T03:59:29.840Z,99.90
2022-10-29T04:01:59.221Z,99.90
2022-10-29T04:04:26.938Z,99.90
2022-10-29T04:06:57.685Z,99.90
2022-10-29T04:09:26.767Z,99.90
2022-10-29T04:11:54.433Z,99.90
2022-10-29T04:14:22.255Z,99.90
2022-10-29T04:16:49.932Z,99.90
2022-10-29T04:19:17.623Z,99.90
2022-10-29T04:30:09.235Z,99.90
2022-10-29T04:32:38.576Z,99.90
2022-10-29T04:35:06.891Z,99.90
2022-10-29T04:37:34.500Z,99.90
2022-10-29T04:40:02.240Z,99.90
2022-10-29T04:42:29.945Z,99.90
2022-10-29T04:44:57.593Z,99.90
2022-10-29T04:47:25.210Z,99.90
2022-10-29T04:49:52.778Z,99.90
2022-10-29T04:52:21.167Z,99.90
2022-10-29T04:54:51.180Z,99.90
2022-10-29T04:57:18.878Z,99.90
2022-10-29T04:59:46.820Z,99.90
2022-10-29T05:02:14.517Z,99.90
2022-10-29T05:04:42.150Z,99.90
2022-10-29T05:07:09.749Z,99.90
2022-10-29T05:09:37.330Z,99.90
2022-10-29T05:12:05.200Z,99.90
2022-10-29T05:14:33.240Z,99.90
2022-10-29T05:17:00.858Z,99.90
2022-10-29T05:19:28.596Z,99.90
2022-10-29T05:21:56.376Z,99.90
2022-10-29T05:24:24.045Z,99.90
2022-10-29T05:26:51.611Z,99.90
2022-10-29T05:29:19.421Z,99.90
2022-10-29T05:31:47.039Z,99.90
2022-10-29T05:34:14.833Z,99.90
2022-10-29T05:36:43.263Z,99.90
2022-10-29T05:39:10.925Z,99.90
2022-10-29T05:41:38.605Z,99.90
2022-10-29T05:44:06.277Z,99.90
2022-10-29T05:46:33.847Z,99.90
2022-10-29T05:49:01.500Z,99.90
2022-10-29T05:51:29.248Z,99.90
2022-10-29T05:53:56.873Z,99.90
2022-10-29T05:56:24.550Z,99.90
2022-10-29T05:58:52.512Z,99.90
2022-10-29T06:01:20.212Z,99.90
2022-10-29T06:03:48.340Z,99.90
2022-10-29T06:06:15.991Z,99.90
2022-10-29T06:08:43.634Z,99.90
2022-10-29T06:11:11.418Z,99.90
2022-10-29T06:13:39.135Z,99.90
2022-10-29T06:16:07.457Z,99.90
2022-10-29T06:18:35.074Z,99.90
2022-10-29T06:21:02.835Z,99.90
2022-10-29T06:23:30.749Z,99.90
2022-10-29T06:26:01.940Z,99.90
2022-10-29T06:28:34.587Z,99.90
2022-10-29T06:31:03.177Z,99.90
2022-10-29T06:33:30.950Z,99.90
2022-10-29T06:36:00.531Z,99.90
2022-10-29T06:38:28.191Z,99.90
2022-10-29T06:40:55.926Z,99.90
2022-10-29T06:43:23.747Z,99.90
2022-10-29T06:45:51.410Z,99.90
2022-10-29T06:48:22.092Z,99.90
2022-10-29T06:50:51.321Z,99.90
2022-10-29T06:53:19.222Z,99.90
2022-10-29T06:55:46.941Z,99.90
2022-10-29T06:58:16.798Z,99.90
2022-10-29T07:00:45.137Z,99.90
2022-10-29T07:03:19.166Z,99.90
2022-10-29T07:05:47.347Z,99.90
2022-10-29T07:08:18.202Z,99.90
2022-10-29T07:10:45.839Z,99.90
2022-10-29T07:13:13.571Z,99.90
2022-10-29T07:15:41.212Z,99.90
2022-10-29T07:18:10.387Z,99.90
2022-10-29T07:20:40.960Z,99.90
2022-10-29T07:23:09.331Z,99.90
2022-10-29T07:25:38.715Z,99.90
2022-10-29T07:28:18.077Z,99.90
2022-10-29T07:30:45.899Z,99.90
2022-10-29T07:33:13.700Z,99.90
2022-10-29T07:35:41.808Z,99.90
2022-10-29T07:38:11.735Z,99.90
2022-10-29T07:40:45.864Z,99.90
2022-10-29T07:43:13.704Z,99.90
2022-10-29T07:45:44.349Z,99.90
2022-10-29T07:48:12.170Z,99.90
2022-10-29T07:50:39.906Z,99.90
2022-10-29T07:53:08.489Z,99.90
2022-10-29T07:55:36.390Z,99.90
2022-10-29T07:58:10.084Z,99.90
2022-10-29T08:00:39.801Z,99.90
2022-10-29T08:03:08.445Z,99.90
2022-10-29T08:05:36.332Z,99.90
2022-10-29T08:08:05.726Z,99.90
2022-10-29T08:10:35.736Z,99.90
2022-10-29T08:13:05.515Z,99.90
2022-10-29T08:15:35.115Z,99.90
2022-10-29T08:18:04.941Z,99.90
2022-10-29T08:20:32.530Z,99.90
2022-10-29T08:23:02.940Z,99.90
2022-10-29T08:25:30.773Z,99.90
2022-10-29T08:28:12.225Z,99.90
2022-10-29T08:30:41.059Z,99.90
2022-10-29T08:33:10.831Z,99.90
2022-10-29T08:35:38.458Z,99.90
2022-10-29T08:38:06.348Z,99.90
2022-10-29T08:40:48.408Z,99.90
2022-10-29T08:43:48.518Z,99.90
2022-10-29T08:46:29.727Z,99.90
2022-10-29T08:49:03.284Z,99.90
2022-10-29T08:51:34.640Z,99.90
2022-10-29T08:54:25.573Z,99.90
2022-10-29T08:57:43.883Z,99.90
2022-10-29T09:00:19.617Z,99.90
2022-10-29T09:03:20.813Z,99.90
2022-10-29T09:06:40.492Z,99.90
2022-10-29T09:12:53.208Z,99.90
2022-10-29T09:16:11.723Z,99.90
2022-10-29T09:19:03.789Z,99.90
2022-10-29T09:21:55.494Z,99.90
2022-10-29T09:24:35.698Z,99.90
2022-10-29T09:27:20.589Z,99.90
2022-10-29T09:30:14.265Z,99.90
2022-10-29T09:32:56.632Z,99.90
2022-10-29T09:35:42.754Z,99.90
2022-10-29T09:38:19.087Z,99.90
2022-10-29T09:40:47.080Z,99.90
2022-10-29T09:43:36.439Z,99.90
2022-10-29T09:46:26.820Z,99.90
2022-10-29T09:49:19.441Z,99.90
2022-10-29T09:52:05.931Z,99.90
2022-10-29T09:54:34.979Z,99.90
2022-10-29T09:57:04.815Z,99.90
2022-10-29T09:59:41.486Z,99.90
2022-10-29T10:02:37.483Z,99.90
2022-10-29T10:05:14.550Z,99.90
2022-10-29T10:07:42.597Z,99.90
2022-10-29T10:10:23.957Z,99.90
2022-10-29T10:12:51.982Z,99.90
2022-10-29T10:15:25.905Z,99.90
2022-10-29T10:18:02.972Z,99.90
2022-10-29T10:20:36.552Z,99.90
2022-10-29T10:23:25.759Z,99.90
2022-10-29T10:26:00.299Z,99.90
2022-10-29T10:28:35.602Z,99.90
2022-10-29T10:31:16.859Z,99.90
2022-10-29T10:33:56.307Z,99.90
2022-10-29T10:36:29.575Z,99.90
2022-10-29T10:39:00.089Z,99.90
2022-10-29T10:41:35.449Z,99.90
2022-10-29T10:44:04.854Z,99.90
2022-10-29T10:46:40.656Z,99.90
2022-10-29T10:49:31.389Z,99.90
2022-10-29T10:52:01.679Z,99.90
2022-10-29T10:54:29.465Z,99.90
2022-10-29T10:57:19.532Z,99.90
2022-10-29T11:00:20.934Z,99.90
2022-10-29T11:03:09.111Z,99.40
2022-10-29T11:05:58.378Z,99.10
2022-10-29T11:08:51.768Z,98.50
2022-10-29T11:11:25.978Z,97.60
2022-10-29T11:13:58.554Z,96.90
2022-10-29T11:16:58.317Z,96.80
2022-10-29T11:19:54.652Z,96.50
2022-10-29T11:22:22.566Z,97.30
2022-10-29T11:25:19.612Z,96.90
2022-10-29T11:27:59.354Z,97.20
2022-10-29T11:30:31.815Z,97.90
2022-10-29T11:33:35.410Z,97.50
2022-10-29T11:36:18.692Z,98.10
2022-10-29T11:38:51.121Z,97.70
2022-10-29T11:41:24.917Z,96.40
2022-10-29T11:43:55.308Z,96.80
2022-10-29T11:46:55.451Z,96.00
2022-10-29T11:49:51.095Z,95.80
2022-10-29T11:52:47.818Z,96.10
2022-10-29T11:55:18.894Z,95.00
2022-10-29T11:58:12.958Z,95.10
2022-10-29T12:01:01.522Z,94.10
2022-10-29T12:03:41.719Z,93.60
2022-10-29T12:06:20.685Z,93.60
2022-10-29T12:09:25.866Z,93.30
2022-10-29T12:12:28.701Z,94.00
2022-10-29T12:15:25.052Z,93.80
2022-10-29T12:18:05.183Z,95.10
2022-10-29T12:20:51.509Z,95.80
2022-10-29T12:23:41.194Z,97.20
2022-10-29T12:26:27.577Z,97.60
2022-10-29T12:29:19.511Z,98.40
2022-10-29T12:32:03.153Z,99.30
2022-10-29T12:34:37.741Z,99.90
2022-10-29T12:37:20.806Z,99.90
2022-10-29T12:39:55.795Z,99.90
2022-10-29T12:42:26.593Z,99.90
2022-10-29T12:45:13.693Z,99.90
2022-10-29T12:51:51.413Z,99.10
2022-10-29T12:54:31.138Z,98.60
2022-10-29T12:57:14.301Z,99.30
2022-10-29T12:59:47.637Z,97.70
2022-10-29T13:02:30.413Z,97.60
2022-10-29T13:05:09.732Z,97.80
2022-10-29T13:07:59.614Z,96.70
2022-10-29T13:10:30.042Z,95.40
2022-10-29T13:13:19.383Z,95.60
2022-10-29T13:15:58.293Z,95.70
2022-10-29T13:18:51.917Z,96.50
2022-10-29T13:21:58.846Z,98.60
2022-10-29T13:24:27.814Z,99.60
2022-10-29T13:27:06.800Z,99.90
2022-10-29T13:29:44.512Z,99.90
2022-10-29T13:32:35.355Z,99.90
2022-10-29T13:35:24.806Z,99.90
2022-10-29T13:38:10.614Z,99.90
2022-10-29T13:40:39.321Z,99.90
2022-10-29T13:43:53.069Z,99.90
2022-10-29T13:46:51.275Z,99.90
2022-10-29T13:49:30.742Z,99.90
2022-10-29T14:09:42.698Z,99.90
2022-10-29T14:12:18.627Z,99.90
2022-10-29T14:14:53.548Z,99.90
2022-10-29T14:17:21.448Z,99.90
2022-10-29T14:19:51.538Z,99.90
2022-10-29T14:22:29.026Z,99.90
2022-10-29T14:25:22.238Z,99.90
2022-10-29T14:28:31.840Z,99.90
2022-10-29T14:31:05.183Z,99.90
2022-10-29T14:33:38.964Z,99.90
2022-10-29T14:36:26.876Z,99.90
2022-10-29T14:39:58.024Z,99.90
2022-10-29T14:42:34.853Z,99.90
2022-10-29T14:45:14.899Z,99.90
2022-10-29T14:47:43.091Z,99.90
2022-10-29T14:50:17.565Z,99.90
2022-10-29T14:52:53.330Z,99.90
2022-10-29T14:55:28.508Z,99.90
2022-10-29T14:58:15.131Z,99.90
2022-10-29T15:00:58.780Z,99.90
2022-10-29T15:03:33.833Z,99.90
2022-10-29T15:06:19.523Z,99.90
2022-10-29T15:08:56.579Z,99.90
2022-10-29T15:11:40.241Z,99.90
2022-10-29T15:14:32.809Z,99.90
2022-10-29T15:17:01.427Z,99.90
2022-10-29T15:19:29.247Z,99.90
2022-10-29T15:21:57.219Z,99.90
2022-10-29T15:24:26.042Z,99.90
2022-10-29T15:26:57.857Z,99.90
2022-10-29T15:29:34.049Z,99.90
2022-10-29T15:32:18.328Z,99.90
2022-10-29T15:34:59.180Z,99.90
2022-10-29T15:37:42.113Z,99.90
2022-10-29T15:40:22.016Z,99.90
2022-10-29T15:42:50.086Z,99.90
2022-10-29T15:45:24.336Z,99.90
2022-10-29T15:48:15.112Z,99.90
2022-10-29T15:50:44.932Z,99.90
2022-10-29T15:53:17.239Z,99.90
2022-10-29T15:55:45.443Z,99.90
2022-10-29T15:58:16.210Z,99.90
2022-10-29T16:00:44.492Z,99.90
2022-10-29T16:03:24.162Z,99.90
2022-10-29T16:05:56.114Z,99.90
2022-10-29T16:08:35.936Z,99.90
2022-10-29T16:11:07.929Z,99.90
2022-10-29T16:13:36.288Z,99.90
2022-10-29T16:16:04.682Z,99.90
2022-10-29T16:22:35.148Z,99.90
2022-10-29T16:25:05.543Z,99.90
2022-10-29T16:27:35.066Z,99.90
2022-10-29T16:34:45.481Z,99.90
2022-10-29T16:37:21.719Z,99.90
2022-10-29T16:39:49.439Z,99.90
2022-10-29T16:42:37.621Z,99.90
2022-10-29T16:45:07.428Z,99.90
2022-10-29T16:47:34.992Z,99.90
2022-10-29T16:50:02.656Z,99.90
2022-10-29T16:52:30.320Z,99.90
2022-10-29T16:54:57.966Z,99.90
2022-10-29T16:57:26.072Z,99.90
2022-10-29T16:59:53.669Z,99.90
2022-10-29T17:02:21.656Z,99.90
2022-10-29T17:04:49.352Z,99.90
2022-10-29T17:07:17.386Z,99.90
2022-10-29T17:09:45.194Z,99.90
2022-10-29T17:12:12.945Z,99.90
2022-10-29T17:14:43.147Z,99.90
2022-10-29T17:17:10.769Z,99.90
2022-10-29T17:19:38.360Z,99.90
2022-10-29T17:22:20.705Z,99.90
2022-10-29T17:24:50.396Z,99.90
2022-10-29T17:27:25.983Z,99.90
2022-10-29T17:29:56.617Z,99.90
2022-10-29T17:32:28.784Z,99.90
2022-10-29T17:34:56.541Z,99.90
2022-10-29T17:37:24.359Z,99.90
2022-10-29T17:40:47.894Z,99.90
2022-10-29T17:43:15.648Z,99.90
2022-10-29T17:45:45.032Z,99.90
2022-10-29T17:48:12.798Z,99.90
2022-10-29T17:50:40.650Z,99.90
2022-10-29T17:53:08.525Z,99.90
2022-10-29T17:55:36.399Z,99.90
2022-10-29T17:58:04.347Z,99.90
2022-10-29T18:01:04.615Z,99.90
2022-10-29T18:04:00.794Z,99.90
2022-10-29T18:10:10.506Z,99.90
2022-10-29T18:12:38.261Z,99.90
2022-10-29T18:15:06.200Z,99.90
2022-10-29T18:17:33.991Z,99.90
2022-10-29T18:20:01.628Z,99.90
2022-10-29T18:22:29.351Z,99.90
2022-10-29T18:24:57.118Z,99.90
2022-10-29T18:27:24.840Z,99.90
2022-10-29T18:30:04.114Z,99.90
2022-10-29T18:32:31.764Z,99.90
2022-10-29T18:34:59.465Z,99.90
2022-10-29T18:37:27.193Z,99.90
2022-10-29T18:40:02.221Z,99.90
2022-10-29T18:42:32.528Z,99.90
2022-10-29T18:45:00.392Z,99.90
2022-10-29T18:47:28.128Z,99.90
2022-10-29T18:49:58.015Z,99.90
2022-10-29T18:52:25.589Z,99.90
2022-10-29T18:54:53.293Z,99.90
2022-10-29T18:57:21.177Z,99.90
2022-10-29T18:59:49.150Z,99.90
2022-10-29T19:02:17.200Z,99.90
2022-10-29T19:04:44.869Z,99.90
2022-10-29T19:07:18.732Z,99.90
2022-10-29T19:09:53.779Z,99.90
2022-10-29T19:12:47.599Z,99.90
2022-10-29T19:15:15.381Z,99.90
2022-10-29T19:17:43.061Z,99.90
2022-10-29T19:20:11.500Z,99.90
2022-10-29T19:22:39.090Z,99.90
2022-10-29T19:25:07.068Z,99.90
2022-10-29T19:27:34.724Z,99.90
2022-10-29T19:30:02.751Z,99.90
2022-10-29T19:32:30.717Z,99.90
2022-10-29T19:34:58.575Z,99.90
2022-10-29T19:37:28.767Z,99.90
2022-10-29T19:40:11.982Z,99.90
2022-10-29T19:42:39.610Z,99.90
2022-10-29T19:45:07.609Z,99.90
2022-10-29T19:47:35.732Z,99.90
2022-10-29T19:50:08.378Z,99.90
2022-10-29T19:52:36.278Z,99.90
2022-10-29T19:55:04.236Z,99.90
2022-10-29T19:57:31.976Z,99.90
2022-10-29T19:59:59.748Z,99.90
2022-10-29T20:02:27.406Z,99.90
2022-10-29T20:04:55.242Z,99.90
2022-10-29T20:11:48.555Z,99.90
2022-10-29T20:14:16.662Z,99.90
2022-10-29T20:16:44.313Z,99.90
2022-10-29T20:19:12.163Z,99.90
2022-10-29T20:21:39.857Z,99.90
2022-10-29T20:24:07.867Z,99.90
2022-10-29T20:26:35.643Z,99.90
2022-10-29T20:29:03.334Z,99.90
2022-10-29T20:31:33.749Z,99.90
2022-10-29T20:34:03.944Z,99.90
2022-10-29T20:36:32.714Z,99.90
2022-10-29T20:39:00.964Z,99.90
2022-10-29T20:41:28.965Z,99.90
2022-10-29T20:43:59.024Z,99.90
2022-10-29T20:46:27.395Z,99.90
2022-10-29T20:48:55.488Z,99.90
2022-10-29T20:51:24.039Z,99.90
2022-10-29T20:53:52.864Z,99.90
2022-10-29T20:56:22.657Z,99.90
2022-10-29T20:58:50.399Z,99.90
2022-10-29T21:01:20.265Z,99.90
2022-10-29T21:03:52.347Z,99.90
2022-10-29T21:06:20.674Z,99.90
2022-10-29T21:08:50.338Z,99.90
2022-10-29T21:11:19.100Z,99.90
2022-10-29T21:13:47.260Z,99.90
2022-10-29T21:16:23.469Z,99.90
2022-10-29T21:18:53.590Z,99.90
2022-10-29T21:21:21.786Z,99.90
2022-10-29T21:23:49.760Z,99.90
2022-10-29T21:26:22.846Z,99.90
2022-10-29T21:28:51.640Z,99.90
2022-10-29T21:31:20.268Z,99.90
2022-10-29T21:33:52.363Z,99.90
2022-10-29T21:36:20.339Z,99.90
2022-10-29T21:38:48.415Z,99.90
2022-10-29T21:41:16.675Z,99.90
2022-10-29T21:43:44.413Z,99.90
2022-10-29T21:46:12.144Z,99.90
2022-10-29T21:48:39.877Z,99.90
2022-10-29T21:51:30.174Z,99.90
2022-10-29T21:54:01.165Z,99.90
2022-10-29T21:56:30.259Z,99.90
2022-10-29T21:58:57.845Z,99.90
2022-10-29T22:01:25.501Z,99.90
2022-10-29T22:03:53.154Z,99.90
2022-10-29T22:06:22.783Z,99.90
2022-10-29T22:08:57.943Z,99.90
2022-10-29T22:11:28.457Z,99.90
2022-10-29T22:13:56.340Z,99.90
2022-10-29T22:16:23.881Z,99.90
2022-10-29T22:18:51.587Z,99.90
2022-10-29T22:21:21.559Z,99.90
2022-10-29T22:23:58.974Z,99.90
2022-10-29T22:26:29.000Z,99.90
2022-10-29T22:28:56.842Z,99.90
2022-10-29T22:31:24.750Z,99.90
2022-10-29T22:33:52.721Z,99.90
2022-10-29T22:36:25.758Z,99.90
2022-10-29T22:38:57.784Z,99.90
2022-10-29T22:41:26.523Z,99.90
2022-10-29T22:43:54.479Z,99.90
2022-10-29T22:46:22.537Z,99.90
2022-10-29T22:48:50.572Z,99.90
2022-10-29T22:51:23.723Z,99.90
2022-10-29T22:53:52.997Z,99.90
2022-10-29T22:56:26.113Z,99.90
2022-10-29T22:58:54.328Z,99.90
2022-10-29T23:01:28.127Z,99.90
2022-10-29T23:03:56.106Z,99.90
2022-10-29T23:06:24.441Z,99.90
2022-10-29T23:08:53.992Z,99.90
2022-10-29T23:11:24.408Z,99.90
2022-10-29T23:13:57.596Z,99.90
2022-10-29T23:16:27.211Z,99.90
2022-10-29T23:19:01.177Z,99.90
2022-10-29T23:21:29.632Z,99.90
2022-10-29T23:23:57.761Z,99.90
2022-10-29T23:26:29.368Z,99.90
2022-10-29T23:28:57.031Z,99.90
2022-10-29T23:31:26.896Z,99.90
2022-10-29T23:33:56.430Z,99.90
2022-10-29T23:36:25.771Z,99.90
2022-10-29T23:39:01.115Z,99.90
2022-10-29T23:41:30.375Z,99.90
2022-10-29T23:43:58.671Z,99.90
2022-10-29T23:46:26.349Z,99.90
2022-10-29T23:48:54.382Z,99.90
2022-10-29T23:51:22.040Z,99.90
2022-10-29T23:53:53.135Z,99.90
2022-10-29T23:56:25.361Z,99.90
2022-10-29T23:58:52.986Z,99.90
